Time;durP1;ratioP1;P1;durP2;ratioP2;P2;SDS_P1;SDS_P2;PMS_P1;PMS_P2;Temp;Humidity;BMP_temperature;BMP_pressure;BME280_temperature;BME280_humidity;BME280_pressure;Samples;Min_cycle;Max_cycle;Signal;HPM_P1;HPM_P2
2024/01/27 00:00:04;;;;;;;;;;;;;;;18.08;58.66;99727.41;2076492;28;19963;-69
2024/01/27 00:01:05;;;;;;;;;;;;;;;18.09;58.82;99722.88;2076505;28;19928;-69
2024/01/27 00:02:07;;;;;;;;;;;;;;;18.11;59.06;99722.69;2076549;28;20508;-69
2024/01/27 00:03:07;;;;;;;;;;;;;;;18.10;59.03;99724.53;2076426;28;19928;-70
2024/01/27 00:04:09;;;;;;;;;;;;;;;18.09;58.90;99723.69;2076175;28;20012;-69
2024/01/27 00:05:10;;;;;;;;;;;;;;;18.11;59.10;99726.22;2079392;28;20757;-69
2024/01/27 00:06:11;;;;;;;;;;;;;;;18.14;59.00;99735.78;2080631;28;20015;-69
2024/01/27 00:07:12;;;;;;;;;;;;;;;18.13;58.74;99728.72;2078953;28;19932;-70
2024/01/27 00:08:15;;;;;;;;;;;;;;;18.13;58.98;99734.09;2078548;28;20411;-70
2024/01/27 00:09:16;;;;;;;;;;;;;;;18.15;58.85;99740.13;2078978;28;19925;-69
2024/01/27 00:10:17;;;;;;;;;;;;;;;18.14;58.64;99730.41;2075969;28;19925;-70
2024/01/27 00:11:18;;;;;;;;;;;;;;;18.17;58.96;99733.59;2078104;28;20071;-70
2024/01/27 00:12:20;;;;;;;;;;;;;;;18.17;58.91;99738.13;2078629;28;19932;-70
2024/01/27 00:13:22;;;;;;;;;;;;;;;18.15;58.91;99732.91;2077556;28;20683;-70
2024/01/27 00:14:23;;;;;;;;;;;;;;;18.15;59.01;99742.81;2079443;28;19932;-70
2024/01/27 00:15:24;;;;;;;;;;;;;;;18.15;58.96;99737.44;2074903;28;19925;-70
2024/01/27 00:16:25;;;;;;;;;;;;;;;18.15;59.01;99740.97;2078285;28;19940;-70
2024/01/27 00:17:27;;;;;;;;;;;;;;;18.15;59.06;99740.97;2075424;28;19929;-70
2024/01/27 00:18:28;;;;;;;;;;;;;;;18.16;58.86;99739.09;2078080;28;19985;-69
2024/01/27 00:19:30;;;;;;;;;;;;;;;18.17;58.94;99743.50;2075612;28;19929;-69
2024/01/27 00:20:30;;;;;;;;;;;;;;;18.15;58.86;99743.66;2078661;28;19925;-70
2024/01/27 00:21:32;;;;;;;;;;;;;;;18.17;58.99;99744.31;2078429;28;20023;-69
2024/01/27 00:22:32;;;;;;;;;;;;;;;18.18;58.76;99737.09;2075595;28;19933;-69
2024/01/27 00:23:35;;;;;;;;;;;;;;;18.20;59.00;99740.44;2081635;28;20074;-70
2024/01/27 00:24:35;;;;;;;;;;;;;;;18.16;58.88;99729.19;2077821;28;19972;-70
2024/01/27 00:25:37;;;;;;;;;;;;;;;18.18;58.77;99723.66;2075126;28;19929;-70
2024/01/27 00:26:38;;;;;;;;;;;;;;;18.16;58.63;99717.63;2074027;28;22372;-69
2024/01/27 00:27:41;;;;;;;;;;;;;;;18.18;59.08;99721.81;2079210;28;19936;-69
2024/01/27 00:28:41;;;;;;;;;;;;;;;18.17;59.07;99717.47;2079792;28;19929;-69
2024/01/27 00:29:43;;;;;;;;;;;;;;;18.18;58.81;99721.00;2077481;28;19968;-70
2024/01/27 00:30:44;;;;;;;;;;;;;;;18.17;58.91;99712.09;2077790;28;19936;-70
2024/01/27 00:31:45;;;;;;;;;;;;;;;18.18;58.72;99721.00;2079372;28;19939;-71
2024/01/27 00:32:46;;;;;;;;;;;;;;;18.17;59.02;99716.63;2079796;28;19932;-69
2024/01/27 00:33:47;;;;;;;;;;;;;;;18.20;58.80;99718.97;2080347;28;19972;-69
2024/01/27 00:34:48;;;;;;;;;;;;;;;18.18;58.82;99719.13;2075958;28;19951;-69
2024/01/27 00:35:48;;;;;;;;;;;;;;;18.18;59.04;99716.44;2076610;28;19929;-70
2024/01/27 00:36:50;;;;;;;;;;;;;;;18.18;59.18;99721.00;2074745;28;19975;-70
2024/01/27 00:37:51;;;;;;;;;;;;;;;18.20;58.97;99717.13;2079697;28;19936;-69
2024/01/27 00:38:52;;;;;;;;;;;;;;;18.19;58.94;99714.59;2078895;28;20374;-70
2024/01/27 00:39:53;;;;;;;;;;;;;;;18.18;59.08;99723.66;2080654;28;19933;-70
2024/01/27 00:40:55;;;;;;;;;;;;;;;18.16;58.96;99715.78;2078785;28;20678;-70
2024/01/27 00:41:58;;;;;;;;;;;;;;;18.17;59.10;99724.69;2076066;28;19943;-70
2024/01/27 00:43:03;;;;;;;;;;;;;;;18.17;59.01;99725.53;2077284;28;19944;-70
2024/01/27 00:44:03;;;;;;;;;;;;;;;18.17;58.86;99735.44;2079458;28;20338;-70
2024/01/27 00:45:06;;;;;;;;;;;;;;;18.17;58.95;99730.91;2077045;28;19976;-70
2024/01/27 00:46:06;;;;;;;;;;;;;;;18.18;58.80;99734.41;2077818;28;19925;-69
2024/01/27 00:47:08;;;;;;;;;;;;;;;18.17;58.87;99735.44;2076667;28;20047;-70
2024/01/27 00:48:09;;;;;;;;;;;;;;;18.17;59.07;99738.94;2082873;28;19925;-69
2024/01/27 00:49:09;;;;;;;;;;;;;;;18.18;58.81;99737.09;2080475;28;20366;-70
2024/01/27 00:50:11;;;;;;;;;;;;;;;18.18;59.04;99737.94;2077342;28;19936;-70
2024/01/27 00:51:11;;;;;;;;;;;;;;;18.18;59.06;99735.25;2081344;28;19932;-70
2024/01/27 00:52:13;;;;;;;;;;;;;;;18.18;59.03;99731.72;2079650;28;20011;-70
2024/01/27 00:53:14;;;;;;;;;;;;;;;18.18;59.06;99737.09;2077705;28;20313;-70
2024/01/27 00:54:16;;;;;;;;;;;;;;;18.18;58.85;99747.84;2080857;28;19935;-70
2024/01/27 00:55:17;;;;;;;;;;;;;;;18.20;58.87;99735.09;2077381;28;19933;-70
2024/01/27 00:56:18;;;;;;;;;;;;;;;18.20;58.63;99735.09;2079471;28;19952;-70
2024/01/27 00:57:19;;;;;;;;;;;;;;;18.20;58.69;99727.84;2077762;28;19982;-70
2024/01/27 00:58:22;;;;;;;;;;;;;;;18.21;58.62;99726.84;2076574;28;19932;-69
2024/01/27 00:59:23;;;;;;;;;;;;;;;18.20;59.13;99722.50;2069432;28;19933;-69
2024/01/27 01:00:24;;;;;;;;;;;;;;;18.20;58.93;99722.50;2075082;28;20060;-70
2024/01/27 01:01:25;;;;;;;;;;;;;;;18.19;58.93;99715.47;2077102;28;20292;-69
2024/01/27 01:02:28;;;;;;;;;;;;;;;18.18;59.03;99719.13;2075976;28;19929;-70
2024/01/27 01:03:28;;;;;;;;;;;;;;;18.20;58.99;99721.66;2077001;28;19929;-70
2024/01/27 01:04:30;;;;;;;;;;;;;;;18.18;58.91;99716.44;2080655;28;20003;-70
2024/01/27 01:05:31;;;;;;;;;;;;;;;18.20;58.99;99721.66;2075790;28;20023;-70
2024/01/27 01:06:32;;;;;;;;;;;;;;;18.20;58.82;99721.66;2078708;28;20392;-70
2024/01/27 01:07:33;;;;;;;;;;;;;;;18.19;59.05;99719.97;2077742;28;20799;-70
2024/01/27 01:08:35;;;;;;;;;;;;;;;18.19;58.80;99718.13;2078433;28;19937;-70
2024/01/27 01:09:35;;;;;;;;;;;;;;;18.20;59.10;99721.66;2076741;28;19940;-70
2024/01/27 01:10:37;;;;;;;;;;;;;;;18.20;59.02;99721.66;2078545;28;19984;-70
2024/01/27 01:11:37;;;;;;;;;;;;;;;18.20;58.98;99719.81;2077316;28;19926;-70
2024/01/27 01:12:39;;;;;;;;;;;;;;;18.19;58.85;99736.06;2076632;28;19964;-70
2024/01/27 01:13:41;;;;;;;;;;;;;;;18.22;58.87;99733.03;2079216;28;19964;-70
2024/01/27 01:14:43;;;;;;;;;;;;;;;18.18;58.89;99735.25;2076109;28;19964;-70
2024/01/27 01:15:43;;;;;;;;;;;;;;;18.21;59.04;99740.25;2077756;28;19928;-70
2024/01/27 01:16:45;;;;;;;;;;;;;;;18.20;59.04;99737.75;2077726;28;19968;-70
2024/01/27 01:17:45;;;;;;;;;;;;;;;18.20;58.70;99730.53;2080652;28;20608;-70
2024/01/27 01:18:47;;;;;;;;;;;;;;;18.19;59.07;99738.75;2078483;28;20023;-70
2024/01/27 01:19:48;;;;;;;;;;;;;;;18.19;58.83;99739.63;2077572;28;19929;-70
2024/01/27 01:20:48;;;;;;;;;;;;;;;18.18;59.00;99740.63;2078756;28;19980;-70
2024/01/27 01:21:50;;;;;;;;;;;;;;;18.18;59.16;99743.28;2075719;28;20146;-70
2024/01/27 01:22:50;;;;;;;;;;;;;;;18.21;59.01;99745.63;2077803;28;19937;-70
2024/01/27 01:23:52;;;;;;;;;;;;;;;18.22;59.04;99733.91;2079240;28;20046;-70
2024/01/27 01:24:52;;;;;;;;;;;;;;;18.21;59.12;99732.22;2076298;28;19929;-70
2024/01/27 01:25:54;;;;;;;;;;;;;;;18.21;58.98;99731.38;2081267;28;20023;-70
2024/01/27 01:26:55;;;;;;;;;;;;;;;18.22;59.10;99741.97;2078315;28;19936;-70
2024/01/27 01:27:56;;;;;;;;;;;;;;;18.22;58.82;99733.03;2079611;28;20415;-70
2024/01/27 01:28:58;;;;;;;;;;;;;;;18.24;58.76;99736.41;2074468;28;19932;-70
2024/01/27 01:30:00;;;;;;;;;;;;;;;18.24;59.00;99736.41;2079806;28;19932;-70
2024/01/27 01:31:01;;;;;;;;;;;;;;;18.24;58.76;99736.41;2077650;28;19933;-70
2024/01/27 01:32:03;;;;;;;;;;;;;;;18.23;59.01;99729.34;2079700;28;19971;-70
2024/01/27 01:33:04;;;;;;;;;;;;;;;18.23;58.93;99734.72;2077551;28;20004;-70
2024/01/27 01:34:05;;;;;;;;;;;;;;;18.23;58.92;99732.88;2080538;28;19944;-69
2024/01/27 01:35:06;;;;;;;;;;;;;;;18.22;58.90;99741.97;2078443;28;19924;-69
2024/01/27 01:36:08;;;;;;;;;;;;;;;18.23;58.75;99735.56;2077669;28;20605;-70
2024/01/27 01:37:08;;;;;;;;;;;;;;;18.22;58.73;99741.09;2072846;28;20573;-70
2024/01/27 01:38:10;;;;;;;;;;;;;;;18.23;58.93;99730.19;2077630;28;19971;-70
2024/01/27 01:39:12;;;;;;;;;;;;;;;18.23;58.71;99734.72;2076996;28;19932;-69
2024/01/27 01:40:15;;;;;;;;;;;;;;;18.24;59.11;99744.44;2081365;28;20388;-70
2024/01/27 01:41:15;;;;;;;;;;;;;;;18.23;58.85;99734.72;2068535;28;19937;-70
2024/01/27 01:42:16;;;;;;;;;;;;;;;18.23;58.90;99740.09;2068170;28;19952;-69
2024/01/27 01:43:18;;;;;;;;;;;;;;;18.24;58.77;99741.75;2069353;28;19929;-70
2024/01/27 01:44:20;;;;;;;;;;;;;;;18.24;58.61;99734.53;2079174;28;20446;-70
2024/01/27 01:45:21;;;;;;;;;;;;;;;18.25;58.83;99743.47;2078208;28;19929;-70
2024/01/27 01:46:23;;;;;;;;;;;;;;;18.24;58.77;99749.81;2079628;28;19947;-69
2024/01/27 01:47:25;;;;;;;;;;;;;;;18.21;58.97;99737.56;2078495;28;19928;-70
2024/01/27 01:48:26;;;;;;;;;;;;;;;18.23;58.88;99742.78;2079546;28;19929;-70
2024/01/27 01:49:27;;;;;;;;;;;;;;;18.22;58.95;99749.16;2073326;28;19929;-70
2024/01/27 01:50:28;;;;;;;;;;;;;;;18.21;58.62;99750.16;2075502;28;19929;-70
2024/01/27 01:51:30;;;;;;;;;;;;;;;18.21;58.80;99747.50;2077719;28;20388;-70
2024/01/27 01:52:30;;;;;;;;;;;;;;;18.21;58.60;99742.13;2078598;28;19932;-70
2024/01/27 01:53:31;;;;;;;;;;;;;;;18.22;58.85;99741.09;2076964;28;20019;-70
2024/01/27 01:54:33;;;;;;;;;;;;;;;18.23;58.64;99745.47;2077939;28;19925;-70
2024/01/27 01:55:33;;;;;;;;;;;;;;;18.20;58.80;99741.28;2080792;28;19929;-70
2024/01/27 01:56:34;;;;;;;;;;;;;;;18.20;59.04;99737.75;2077730;28;19929;-70
2024/01/27 01:57:36;;;;;;;;;;;;;;;18.22;58.98;99738.41;2079169;28;19929;-70
2024/01/27 01:58:37;;;;;;;;;;;;;;;18.22;58.72;99730.34;2076175;28;20576;-69
2024/01/27 01:59:41;;;;;;;;;;;;;;;18.24;58.75;99731.03;2075297;28;19968;-70
2024/01/27 02:00:41;;;;;;;;;;;;;;;18.27;58.80;99722.63;2080068;28;19971;-69
2024/01/27 02:01:43;;;;;;;;;;;;;;;18.27;58.63;99725.31;2078874;28;19932;-70
2024/01/27 02:02:44;;;;;;;;;;;;;;;18.29;58.65;99723.28;2077719;28;19929;-70
2024/01/27 02:03:52;;;;;;;;;;;;;;;18.28;58.66;99718.94;2078638;28;19963;-70
2024/01/27 02:04:53;;;;;;;;;;;;;;;18.30;58.76;99717.75;2078393;28;19925;-69
2024/01/27 02:05:54;;;;;;;;;;;;;;;18.32;58.77;99720.25;2079018;28;20392;-69
2024/01/27 02:06:55;;;;;;;;;;;;;;;18.33;58.83;99721.94;2079589;28;19933;-70
2024/01/27 02:07:59;;;;;;;;;;;;;;;18.36;58.84;99729.66;2079608;28;20016;-70
2024/01/27 02:09:00;;;;;;;;;;;;;;;18.38;58.48;99730.28;2079514;28;19936;-70
2024/01/27 02:10:01;;;;;;;;;;;;;;;18.38;58.75;99724.06;2075438;28;19936;-69
2024/01/27 02:11:03;;;;;;;;;;;;;;;18.38;58.54;99724.06;2078651;28;19940;-70
2024/01/27 02:12:03;;;;;;;;;;;;;;;18.40;58.42;99720.22;2076747;28;20058;-70
2024/01/27 02:13:06;;;;;;;;;;;;;;;18.39;58.44;99726.59;2076893;28;20474;-70
2024/01/27 02:14:07;;;;;;;;;;;;;;;18.39;58.65;99718.53;2076734;28;20520;-69
2024/01/27 02:15:13;;;;;;;;;;;;;;;18.41;58.67;99726.41;2076963;28;19936;-70
2024/01/27 02:16:13;;;;;;;;;;;;;;;18.40;58.61;99724.75;2079146;28;20036;-70
2024/01/27 02:17:15;;;;;;;;;;;;;;;18.40;58.65;99733.63;2078696;28;20503;-70
2024/01/27 02:18:16;;;;;;;;;;;;;;;18.40;58.67;99730.13;2077847;28;19934;-70
2024/01/27 02:19:17;;;;;;;;;;;;;;;18.41;58.62;99726.41;2075838;28;20418;-69
2024/01/27 02:20:18;;;;;;;;;;;;;;;18.41;58.95;99729.09;2076574;28;20392;-70
2024/01/27 02:21:20;;;;;;;;;;;;;;;18.41;58.74;99724.56;2078713;28;20051;-69
2024/01/27 02:22:20;;;;;;;;;;;;;;;18.41;58.59;99721.88;2077974;28;19933;-70
2024/01/27 02:23:22;;;;;;;;;;;;;;;18.42;58.51;99725.41;2076540;28;20436;-70
2024/01/27 02:24:24;;;;;;;;;;;;;;;18.42;58.41;99723.56;2075844;28;19936;-70
2024/01/27 02:25:26;;;;;;;;;;;;;;;18.41;58.46;99729.94;2078586;28;19929;-70
2024/01/27 02:26:26;;;;;;;;;;;;;;;18.41;58.62;99729.94;2078086;28;20454;-70
2024/01/27 02:27:30;;;;;;;;;;;;;;;18.42;58.94;99737.00;2078526;28;21892;-70
2024/01/27 02:28:33;;;;;;;;;;;;;;;18.42;58.56;99741.53;2076525;28;19929;-70
2024/01/27 02:29:34;;;;;;;;;;;;;;;18.42;58.67;99745.06;2077296;28;19967;-70
2024/01/27 02:30:35;;;;;;;;;;;;;;;18.42;58.57;99738.84;2080480;28;19935;-70
2024/01/27 02:31:35;;;;;;;;;;;;;;;18.43;58.50;99735.97;2079020;28;20483;-70
2024/01/27 02:32:37;;;;;;;;;;;;;;;18.43;58.51;99741.34;2068745;28;19976;-70
2024/01/27 02:33:38;;;;;;;;;;;;;;;18.42;58.56;99733.47;2076020;28;19929;-70
2024/01/27 02:34:39;;;;;;;;;;;;;;;18.43;58.58;99738.66;2078928;28;20344;-70
2024/01/27 02:35:40;;;;;;;;;;;;;;;18.44;58.69;99736.81;2077318;28;20331;-70
2024/01/27 02:36:43;;;;;;;;;;;;;;;18.43;58.57;99738.66;2077345;28;20047;-70
2024/01/27 02:37:43;;;;;;;;;;;;;;;18.43;58.59;99737.81;2075614;28;20015;-70
2024/01/27 02:38:45;;;;;;;;;;;;;;;18.42;58.43;99744.22;2077466;28;20388;-70
2024/01/27 02:39:47;;;;;;;;;;;;;;;18.41;58.79;99742.53;2076042;28;19983;-69
2024/01/27 02:40:48;;;;;;;;;;;;;;;18.41;58.55;99739.84;2077768;28;19965;-69
2024/01/27 02:41:49;;;;;;;;;;;;;;;18.42;58.77;99741.53;2077549;28;19925;-69
2024/01/27 02:42:51;;;;;;;;;;;;;;;18.41;58.87;99732.63;2076356;28;20031;-70
2024/01/27 02:43:51;;;;;;;;;;;;;;;18.41;58.65;99729.94;2076720;28;19933;-70
2024/01/27 02:44:53;;;;;;;;;;;;;;;18.40;58.87;99730.94;2082324;28;19972;-70
2024/01/27 02:45:53;;;;;;;;;;;;;;;18.40;58.62;99733.63;2079547;28;19933;-71
2024/01/27 02:46:55;;;;;;;;;;;;;;;18.42;58.83;99728.09;2078185;28;19929;-70
2024/01/27 02:47:56;;;;;;;;;;;;;;;18.39;58.90;99733.84;2079783;28;20387;-70
2024/01/27 02:48:57;;;;;;;;;;;;;;;18.41;58.79;99734.47;2076476;28;19929;-70
2024/01/27 02:49:58;;;;;;;;;;;;;;;18.40;58.75;99732.81;2079725;28;19932;-70
2024/01/27 02:51:02;;;;;;;;;;;;;;;18.39;58.85;99740.03;2080537;28;19984;-69
2024/01/27 02:52:03;;;;;;;;;;;;;;;18.38;58.58;99730.28;2070982;28;19964;-70
2024/01/27 02:53:05;;;;;;;;;;;;;;;18.39;58.72;99726.59;2079160;28;20646;-70
2024/01/27 02:54:05;;;;;;;;;;;;;;;18.41;58.53;99727.25;2077237;28;20673;-70
2024/01/27 02:55:09;;;;;;;;;;;;;;;18.38;58.83;99727.59;2078380;28;19992;-70
2024/01/27 02:56:09;;;;;;;;;;;;;;;18.39;59.02;99729.28;2077037;28;19925;-70
2024/01/27 02:57:11;;;;;;;;;;;;;;;18.39;58.92;99729.28;2078161;28;20447;-69
2024/01/27 02:58:12;;;;;;;;;;;;;;;18.40;58.54;99720.22;2075654;28;19929;-70
2024/01/27 02:59:13;;;;;;;;;;;;;;;18.37;58.65;99720.56;2075893;28;19968;-70
2024/01/27 03:00:14;;;;;;;;;;;;;;;18.39;58.58;99713.19;2078338;28;20447;-70
2024/01/27 03:01:16;;;;;;;;;;;;;;;18.39;58.67;99715.84;2078074;28;20031;-70
2024/01/27 03:02:16;;;;;;;;;;;;;;;18.39;58.97;99715.84;2077140;28;20603;-70
2024/01/27 03:03:17;;;;;;;;;;;;;;;18.38;58.71;99716.84;2079168;28;20016;-70
2024/01/27 03:04:19;;;;;;;;;;;;;;;18.41;58.57;99715.66;2078959;28;19928;-70
2024/01/27 03:05:19;;;;;;;;;;;;;;;18.40;58.63;99719.38;2079081;28;19956;-70
2024/01/27 03:06:20;;;;;;;;;;;;;;;18.39;58.52;99723.91;2078676;28;20072;-70
2024/01/27 03:07:22;;;;;;;;;;;;;;;18.40;58.62;99735.50;2075201;28;19925;-70
2024/01/27 03:08:22;;;;;;;;;;;;;;;18.41;58.65;99721.88;2076422;28;19982;-70
2024/01/27 03:09:24;;;;;;;;;;;;;;;18.39;58.53;99729.28;2078422;28;19933;-69
2024/01/27 03:10:26;;;;;;;;;;;;;;;18.37;58.62;99725.94;2077724;28;19925;-69
2024/01/27 03:11:26;;;;;;;;;;;;;;;18.39;58.63;99723.91;2078343;28;20051;-70
2024/01/27 03:12:28;;;;;;;;;;;;;;;18.39;58.83;99723.09;2077711;28;19933;-70
2024/01/27 03:13:29;;;;;;;;;;;;;;;18.39;58.70;99718.53;2078636;28;23052;-70
2024/01/27 03:14:30;;;;;;;;;;;;;;;18.40;58.86;99722.91;2077950;28;20737;-70
2024/01/27 03:15:31;;;;;;;;;;;;;;;18.39;58.76;99726.59;2076356;28;20391;-69
2024/01/27 03:16:32;;;;;;;;;;;;;;;18.39;58.58;99721.22;2075298;28;20020;-70
2024/01/27 03:17:33;;;;;;;;;;;;;;;18.38;58.84;99729.44;2077234;28;19935;-69
2024/01/27 03:18:36;;;;;;;;;;;;;;;18.38;58.90;99734.81;2078084;28;20617;-70
2024/01/27 03:19:37;;;;;;;;;;;;;;;18.39;58.60;99731.97;2076956;28;19929;-70
2024/01/27 03:20:39;;;;;;;;;;;;;;;18.40;58.96;99730.13;2078312;28;19964;-70
2024/01/27 03:21:39;;;;;;;;;;;;;;;18.41;58.76;99729.09;2076629;28;19929;-70
2024/01/27 03:22:41;;;;;;;;;;;;;;;18.39;58.81;99734.66;2078891;28;20024;-70
2024/01/27 03:23:42;;;;;;;;;;;;;;;18.39;58.78;99733.84;2080092;28;19982;-70
2024/01/27 03:24:44;;;;;;;;;;;;;;;18.38;58.87;99732.13;2079743;28;20014;-69
2024/01/27 03:25:46;;;;;;;;;;;;;;;18.37;58.64;99731.31;2081560;28;19932;-70
2024/01/27 03:26:47;;;;;;;;;;;;;;;18.37;58.77;99730.47;2076400;28;20405;-70
2024/01/27 03:27:48;;;;;;;;;;;;;;;18.37;58.90;99728.63;2079777;28;19933;-70
2024/01/27 03:28:49;;;;;;;;;;;;;;;18.37;58.67;99736.69;2076571;28;20376;-70
2024/01/27 03:29:50;;;;;;;;;;;;;;;18.35;58.82;99727.94;2079804;28;19929;-70
2024/01/27 03:30:52;;;;;;;;;;;;;;;18.36;58.68;99723.41;2076581;28;20015;-70
2024/01/27 03:31:52;;;;;;;;;;;;;;;18.35;58.91;99727.94;2077976;28;19929;-70
2024/01/27 03:32:54;;;;;;;;;;;;;;;18.35;58.90;99729.81;2074732;28;20724;-70
2024/01/27 03:33:54;;;;;;;;;;;;;;;18.34;58.65;99728.97;2078705;28;19935;-70
2024/01/27 03:34:56;;;;;;;;;;;;;;;18.34;58.82;99731.66;2077830;28;19928;-70
2024/01/27 03:35:57;;;;;;;;;;;;;;;18.36;58.60;99728.78;2075318;28;19929;-69
2024/01/27 03:36:58;;;;;;;;;;;;;;;18.36;58.67;99726.09;2079417;28;20041;-70
2024/01/27 03:37:59;;;;;;;;;;;;;;;18.39;58.60;99728.47;2076626;28;19973;-70
2024/01/27 03:39:00;;;;;;;;;;;;;;;18.38;58.84;99716.84;2079211;28;20070;-69
2024/01/27 03:40:01;;;;;;;;;;;;;;;18.40;58.70;99719.38;2076867;28;19929;-70
2024/01/27 03:41:04;;;;;;;;;;;;;;;18.42;58.68;99717.34;2075074;28;19933;-70
2024/01/27 03:42:06;;;;;;;;;;;;;;;18.42;58.49;99723.56;2076773;28;20023;-69
2024/01/27 03:43:07;;;;;;;;;;;;;;;18.43;58.35;99719.84;2077475;28;19935;-70
2024/01/27 03:44:08;;;;;;;;;;;;;;;18.43;58.58;99725.22;2076537;28;20723;-70
2024/01/27 03:45:09;;;;;;;;;;;;;;;18.46;58.77;99727.56;2076083;28;20426;-70
2024/01/27 03:46:10;;;;;;;;;;;;;;;18.50;58.45;99728.06;2079302;28;19972;-70
2024/01/27 03:47:12;;;;;;;;;;;;;;;18.49;58.32;99727.19;2079423;28;19940;-70
2024/01/27 03:48:12;;;;;;;;;;;;;;;18.52;58.49;99717.94;2070548;28;19929;-70
2024/01/27 03:49:13;;;;;;;;;;;;;;;18.51;58.32;99722.50;2073975;28;20056;-70
2024/01/27 03:50:14;;;;;;;;;;;;;;;18.54;58.15;99722.13;2078305;28;20307;-69
2024/01/27 03:51:15;;;;;;;;;;;;;;;18.54;58.50;99718.63;2078759;28;19936;-69
2024/01/27 03:52:17;;;;;;;;;;;;;;;18.56;58.36;99718.47;2075787;28;20020;-70
2024/01/27 03:53:17;;;;;;;;;;;;;;;18.56;58.23;99718.47;2079016;28;19952;-70
2024/01/27 03:54:19;;;;;;;;;;;;;;;18.58;58.46;99714.56;2078911;28;21317;-70
2024/01/27 03:55:19;;;;;;;;;;;;;;;18.57;58.31;99712.06;2077672;28;19955;-70
2024/01/27 03:56:23;;;;;;;;;;;;;;;18.57;58.44;99709.38;2079061;28;20419;-70
2024/01/27 03:57:23;;;;;;;;;;;;;;;18.56;58.37;99703.16;2076500;28;19939;-70
2024/01/27 03:58:25;;;;;;;;;;;;;;;18.57;58.46;99712.06;2076595;28;20019;-70
2024/01/27 03:59:26;;;;;;;;;;;;;;;18.57;58.42;99714.75;2076648;28;20016;-70
2024/01/27 04:00:29;;;;;;;;;;;;;;;18.57;58.68;99717.44;2077187;28;20300;-69
2024/01/27 04:01:30;;;;;;;;;;;;;;;18.56;58.42;99718.47;2077188;28;25354;-69
2024/01/27 04:02:31;;;;;;;;;;;;;;;18.58;58.38;99719.09;2079065;28;19980;-70
2024/01/27 04:03:32;;;;;;;;;;;;;;;18.58;58.29;99721.78;2075520;28;19933;-70
2024/01/27 04:04:34;;;;;;;;;;;;;;;18.59;58.28;99718.09;2077233;28;19940;-70
2024/01/27 04:05:34;;;;;;;;;;;;;;;18.59;58.40;99712.72;2079150;28;20352;-70
2024/01/27 04:06:40;;;;;;;;;;;;;;;18.58;58.16;99706.50;2078011;28;20606;-69
2024/01/27 04:07:40;;;;;;;;;;;;;;;18.58;58.35;99705.66;2067928;28;19933;-70
2024/01/27 04:08:43;;;;;;;;;;;;;;;18.58;58.54;99705.66;2070045;28;20548;-70
2024/01/27 04:09:44;;;;;;;;;;;;;;;18.57;58.75;99706.69;2071236;28;19929;-70
2024/01/27 04:10:45;;;;;;;;;;;;;;;18.58;58.48;99711.88;2069054;28;19960;-70
2024/01/27 04:11:47;;;;;;;;;;;;;;;18.57;58.36;99706.69;2073557;28;19929;-70
2024/01/27 04:12:49;;;;;;;;;;;;;;;18.58;58.34;99694.91;2068552;28;20023;-70
2024/01/27 04:13:50;;;;;;;;;;;;;;;18.58;58.60;99706.50;2074504;28;20019;-70
2024/01/27 04:14:52;;;;;;;;;;;;;;;18.58;58.37;99711.03;2072101;28;19980;-70
2024/01/27 04:15:53;;;;;;;;;;;;;;;18.58;58.34;99711.03;2072446;28;19929;-71
2024/01/27 04:16:55;;;;;;;;;;;;;;;18.58;58.38;99711.88;2072203;28;19940;-70
2024/01/27 04:17:56;;;;;;;;;;;;;;;18.58;58.41;99705.66;2072016;28;19936;-69
2024/01/27 04:18:57;;;;;;;;;;;;;;;18.58;58.53;99711.03;2068627;28;20063;-70
2024/01/27 04:19:58;;;;;;;;;;;;;;;18.57;58.51;99706.69;2067558;28;21696;-69
2024/01/27 04:21:00;;;;;;;;;;;;;;;18.56;58.53;99703.16;2069538;28;20027;-70
2024/01/27 04:22:01;;;;;;;;;;;;;;;18.54;58.69;99706.03;2070154;28;19937;-70
2024/01/27 04:23:03;;;;;;;;;;;;;;;18.56;58.34;99711.22;2066256;28;19929;-70
2024/01/27 04:24:04;;;;;;;;;;;;;;;18.56;58.40;99707.72;2068939;28;19925;-69
2024/01/27 04:25:06;;;;;;;;;;;;;;;18.57;58.63;99720.94;2071527;28;19977;-70
2024/01/27 04:26:06;;;;;;;;;;;;;;;18.56;58.45;99718.47;2070108;28;19929;-70
2024/01/27 04:27:09;;;;;;;;;;;;;;;18.54;58.51;99721.31;2069227;28;20006;-70
2024/01/27 04:28:11;;;;;;;;;;;;;;;18.55;58.44;99722.97;2068366;28;19926;-70
2024/01/27 04:29:15;;;;;;;;;;;;;;;18.54;58.66;99726.69;2066288;28;20412;-70
2024/01/27 04:30:15;;;;;;;;;;;;;;;18.54;58.63;99727.50;2068808;28;19929;-69
2024/01/27 04:31:17;;;;;;;;;;;;;;;18.54;58.44;99732.88;2068764;28;19936;-68
2024/01/27 04:32:17;;;;;;;;;;;;;;;18.57;58.62;99738.94;2068780;28;19929;-70
2024/01/27 04:33:19;;;;;;;;;;;;;;;18.53;58.67;99731.22;2068198;28;19929;-70
2024/01/27 04:34:20;;;;;;;;;;;;;;;18.52;58.59;99726.84;2068468;28;19929;-69
2024/01/27 04:35:21;;;;;;;;;;;;;;;18.54;58.63;99724.00;2069205;28;20076;-70
2024/01/27 04:36:27;;;;;;;;;;;;;;;18.54;58.39;99738.25;2066319;28;20293;-69
2024/01/27 04:37:28;;;;;;;;;;;;;;;18.56;58.60;99738.09;2067641;28;19952;-70
2024/01/27 04:38:29;;;;;;;;;;;;;;;18.53;58.59;99735.75;2069692;28;19925;-69
2024/01/27 04:39:30;;;;;;;;;;;;;;;18.56;58.45;99734.59;2069228;28;19929;-70
2024/01/27 04:40:32;;;;;;;;;;;;;;;18.57;58.60;99730.88;2069932;28;20047;-70
2024/01/27 04:41:33;;;;;;;;;;;;;;;18.53;58.56;99733.91;2067779;28;19929;-70
2024/01/27 04:42:37;;;;;;;;;;;;;;;18.53;58.61;99733.91;2070097;28;23004;-70
2024/01/27 04:43:39;;;;;;;;;;;;;;;18.53;58.37;99727.72;2069195;28;19929;-70
2024/01/27 04:44:40;;;;;;;;;;;;;;;18.53;58.42;99736.59;2074529;28;19974;-70
2024/01/27 04:45:42;;;;;;;;;;;;;;;18.52;58.42;99740.28;2079839;28;20732;-69
2024/01/27 04:46:42;;;;;;;;;;;;;;;18.53;58.62;99736.59;2076015;28;20486;-70
2024/01/27 04:47:44;;;;;;;;;;;;;;;18.54;58.35;99735.56;2078930;28;20051;-70
2024/01/27 04:48:44;;;;;;;;;;;;;;;18.53;58.47;99746.50;2077760;28;19932;-70
2024/01/27 04:49:46;;;;;;;;;;;;;;;18.52;58.65;99739.44;2079122;28;19983;-70
2024/01/27 04:50:47;;;;;;;;;;;;;;;18.52;58.50;99739.44;2076865;28;19933;-70
2024/01/27 04:51:48;;;;;;;;;;;;;;;18.50;58.35;99736.94;2080545;28;20028;-70
2024/01/27 04:52:49;;;;;;;;;;;;;;;18.50;58.45;99736.13;2078712;28;19928;-70
2024/01/27 04:53:51;;;;;;;;;;;;;;;18.49;58.75;99735.25;2080636;28;20397;-70
2024/01/27 04:54:52;;;;;;;;;;;;;;;18.50;58.61;99739.63;2079306;28;19962;-70
2024/01/27 04:55:53;;;;;;;;;;;;;;;18.50;58.71;99741.50;2079075;28;21048;-70
2024/01/27 04:56:54;;;;;;;;;;;;;;;18.48;58.58;99736.28;2074711;28;19933;-70
2024/01/27 04:57:58;;;;;;;;;;;;;;;18.51;58.68;99741.31;2072764;28;20351;-70
2024/01/27 04:58:58;;;;;;;;;;;;;;;18.52;58.42;99740.28;2081033;28;19987;-70
2024/01/27 05:00:00;;;;;;;;;;;;;;;18.52;58.55;99739.44;2077915;28;19929;-70
2024/01/27 05:01:01;;;;;;;;;;;;;;;18.51;58.42;99738.63;2072654;28;20388;-70
2024/01/27 05:02:03;;;;;;;;;;;;;;;18.51;58.40;99733.25;2078893;28;19925;-69
2024/01/27 05:03:07;;;;;;;;;;;;;;;18.49;58.42;99740.63;2080640;28;19929;-70
2024/01/27 05:04:08;;;;;;;;;;;;;;;18.47;58.53;99745.38;2078162;28;19935;-70
2024/01/27 05:05:09;;;;;;;;;;;;;;;18.49;58.40;99743.31;2078682;28;19940;-70
2024/01/27 05:06:10;;;;;;;;;;;;;;;18.50;58.67;99742.31;2078293;28;20443;-70
2024/01/27 05:07:11;;;;;;;;;;;;;;;18.49;58.72;99737.94;2077089;28;19936;-70
2024/01/27 05:08:13;;;;;;;;;;;;;;;18.48;58.96;99748.88;2078040;28;20674;-70
2024/01/27 05:09:13;;;;;;;;;;;;;;;18.48;58.47;99747.03;2078736;28;19933;-69
2024/01/27 05:10:15;;;;;;;;;;;;;;;18.49;58.70;99751.38;2080362;28;20557;-70
2024/01/27 05:11:17;;;;;;;;;;;;;;;18.48;58.34;99746.19;2079649;28;19936;-70
2024/01/27 05:12:19;;;;;;;;;;;;;;;18.47;58.43;99748.06;2077448;28;20031;-70
2024/01/27 05:13:21;;;;;;;;;;;;;;;18.46;58.48;99751.72;2075772;28;20005;-69
2024/01/27 05:14:22;;;;;;;;;;;;;;;18.47;58.61;99750.75;2075621;28;19944;-70
2024/01/27 05:15:23;;;;;;;;;;;;;;;18.47;58.42;99752.56;2080029;28;19936;-70
2024/01/27 05:16:24;;;;;;;;;;;;;;;18.47;58.28;99756.13;2079749;28;21647;-69
2024/01/27 05:17:25;;;;;;;;;;;;;;;18.46;58.41;99750.91;2079024;28;19929;-70
2024/01/27 05:18:27;;;;;;;;;;;;;;;18.44;58.32;99755.59;2080175;28;19971;-70
2024/01/27 05:19:27;;;;;;;;;;;;;;;18.44;58.68;99756.47;2078500;28;19929;-70